Tropical Cyclones
[Index]
Main Index Home Page Stock Weather Photos Extreme Storms Discussion Storm News and Storm Chasing Reports Tropical Cyclones / Hurricanes / Typhoons Weather Data and Links Wild Fires / Bushfires Weather Observation Techniques Weather Picture Catalogue Tornado Pictures and Reports Stock Video Footage and DVDs for sale
Season 1957-1958 Tropical Cyclone 195758_11 Track Map
Season 1957-1958 Summaries: [BoM-AU] [JTWC-AU] [JTWC-SIO] [JTWC-SPAC] [JTWC-SH]
<<- Previous TC | BoM 1957-1958 Season | Next TC ->>

click for intensity scale information  Lat/long Grid: Show Hide

 Date Labels: Show Hide

Bureau of Meteorology Tropical Cyclone Data

Name: 195758_11
Number: 300 / 195758_11

11 Mar 1958 05:00 UTC to 19 Mar 1958 23:00 UTC

    date/time    lat    long    hPa   cat  kts
1958-03-11 05   12.6   174.5   1001                     
1958-03-11 17   12.0   175.6   1001                     
1958-03-12 17   13.7   176.0   1000                     
1958-03-13 05   15.0   177.0   1000                     
1958-03-13 11   16.0   176.0    999                     
1958-03-14 05   17.0   176.0    996                     
1958-03-14 23   18.0   175.0    998                     
1958-03-15 05   19.0   173.0    998                     
1958-03-15 17   21.0   173.4    999                     
1958-03-16 05   22.8   174.0    999                     
1958-03-16 11   23.9   174.3    999                     
1958-03-17 05   21.5   172.9    999                     
1958-03-17 17   22.0   171.0   1000                     
1958-03-17 23   23.0   171.0   1000                     
1958-03-18 11   22.0   171.5   1001                     
1958-03-18 17   19.0   155.0   1000                     
1958-03-18 23   19.0   155.5    998                     
1958-03-19 05   19.0   155.3    997                     
1958-03-19 11   19.0   155.0    998                     
1958-03-19 17   19.0   155.0   1000                     
1958-03-19 23   18.6   155.4   1002                     
Winds are 10-min average.

Tropical cyclone tracks developed by Michael Bath using data from the Bureau of Meteorology and Google Maps.


[Australian Severe Weather index] [Copyright Notice] [Email Contacts] [Search This Site] [Privacy Policy]
Document: tropical_cyclone_195758_11.htm Updated: 30 May 2013